Airfield :
LOGIN :

Register | Disclaimer

   EN    FR    IT 

 










Legend :    VFR   Marginal VFR   IFR   Intensive IFR   Very Intensive IFR
Visi :
Ceiling :
>= 8 km
>= 3000ft
5 to 8 km
1000 to 3000 ft
1500m to 5 km
500 to 1000 ft
800 to 1500m
200 to 500 ft
< 800m
< 200 ft
Symbols :   Thunderstorms  Fog  Heavy snow  Heavy precipitations  Wind > 20 kt
SIGMETs :     Misc.  Thunderstorms  Icing  Turbulence  Mountain Waves  Volcanic Ashes






- Airport Elevation : 200 ft


EBBL - Klein Brogel AB

CURRENT METAR :
  • 230825Z 21006KT 9999 SCT020 BKN024 16/11 Q1015 WHT WHT BECMG BLU

EXPIRED METARs :
  • 230806Z 23007KT 9999 SCT020 BKN024 16/12 Q1015 WHT WHT BECMG BLU
  • 230755Z 24007KT 9999 BKN023 16/11 Q1015 WHT BLU TEMPO WHT
  • 230725Z 23009KT 9999 BKN018 15/12 Q1015 WHT BLU TEMPO WHT
  • 230655Z 23010KT 9999 SCT017 16/11 Q1014 WHT BLU TEMPO WHT
  • 230649Z 23009KT 9999 SCT017 15/11 Q1014 WHT BLU TEMPO WHT
  • 230625Z 23010KT 9999 FEW015 15/11 Q1014 BLU BLU TEMPO WHT
  • 230621Z 23010KT 9999 FEW015 15/11 Q1014 BLU BLU TEMPO WHT
  • 230543Z 22007KT 9999 BKN021 14/12 Q1014 WHT WHT TEMPO WHT
  • 230534Z 22006KT 9999 SCT021 13/11 Q1014 WHT BLU TEMPO WHT
  • 230455Z 21006KT 9999 SKC 12/11 Q1014 BLU BLU
  • 230441Z 21006KT 9999 SKC 12/10 Q1013 BLU BLU

TAF TAF EBBL
Valid from the 23 at 07:00 until the 23 at 16:00 UTC


230541Z 2307/2316 23008KT 9999 SCT030
TEMPO 2307/2310 BKN020
PROB30
TEMPO 2313/2316 23010KT 5000 -SHRA SCT030TCU
PROB30
TEMPO 2315/2316 23010G20KT 2000 -TSRA SCT015CB



MET'MAP, your aeronautical weather chart ! - Copyright ORBIFLY December 2007 - Disclaimer

ORBIFLY MET'MAP TEAM :

Programming & Development : Alexandra Zaïnal
Original concept : Baudouin d'Aumeries
Technical & hardware support : Manuel Goepfert
Assistance : Marc-Olivier Méhu




SOURCES & CREDITS :

   NOAA